| Date | Time | Temp. (oF) | Dew Point (oF) | Rel. Hum. (%) | Press. (in.) | Wind Dir. | Wind Speed (mph) | Hourly Rainfall (in.) |
|
|---|---|---|---|---|---|---|---|---|---|
| 1 | 11/10 | 00:00 | 24 | 21 | 89 | 30.64 | W | 0 | 0.00 |
| 2 | 11/09 | 23:00 | 25 | 21 | 86 | 30.64 | W | 0 | 0.00 |
| 3 | 11/09 | 22:00 | 26 | 20 | 80 | 30.64 | W | 0 | 0.00 |
| 4 | 11/09 | 21:00 | 27 | 20 | 77 | 30.65 | W | 0 | 0.00 |
| 5 | 11/09 | 20:00 | 29 | 19 | 67 | 30.65 | WNW | 0 | 0.00 |
| 6 | 11/09 | 19:00 | 32 | 15 | 51 | 30.64 | WNW | 0 | 0.00 |
| 7 | 11/09 | 18:00 | 36 | 15 | 42 | 30.64 | WNW | 0 | 0.00 |
| 8 | 11/09 | 17:00 | 40 | 13 | 33 | 30.63 | WNW | 1 | 0.00 |
| 9 | 11/09 | 16:00 | 41 | 12 | 31 | 30.62 | W | 3 | 0.00 |
| 10 | 11/09 | 15:00 | 42 | 12 | 30 | 30.63 | SSE | 7 | 0.00 |
| 11 | 11/09 | 14:00 | 42 | 14 | 33 | 30.65 | N | 2 | 0.00 |
| 12 | 11/09 | 13:00 | 41 | 16 | 37 | 30.69 | WSW | 4 | 0.00 |
| 13 | 11/09 | 12:00 | 40 | 18 | 41 | 30.72 | SSE | 1 | 0.00 |
| 14 | 11/09 | 11:00 | 38 | 18 | 46 | 30.75 | N | 7 | 0.00 |
| 15 | 11/09 | 10:00 | 36 | 20 | 53 | 30.76 | NNE | 4 | 0.00 |
| 16 | 11/09 | 09:00 | 32 | 19 | 60 | 30.75 | E | 6 | 0.00 |
| 17 | 11/09 | 08:00 | 25 | 18 | 76 | 30.74 | NNW | 1 | 0.00 |
| 18 | 11/09 | 07:00 | 23 | 15 | 73 | 30.72 | NNW | 1 | 0.00 |
| 19 | 11/09 | 06:00 | 25 | 14 | 65 | 30.71 | NNW | 0 | 0.00 |
| 20 | 11/09 | 05:00 | 25 | 14 | 63 | 30.71 | NNW | 3 | 0.00 |
| 21 | 11/09 | 04:00 | 26 | 14 | 61 | 30.69 | NNE | 2 | 0.00 |
| 22 | 11/09 | 03:00 | 27 | 14 | 58 | 30.69 | NNE | 0 | 0.00 |
| 23 | 11/09 | 02:00 | 28 | 14 | 56 | 30.69 | NNW | 2 | 0.00 |
| 24 | 11/09 | 01:00 | 30 | 15 | 54 | 30.67 | N | 6 | 0.00 |